the time You need

Marina Romea MTB

Marina Romea, Ravenna   Italy

domenica 15 febbraio 2015

Percorsi

LUNGO - 31.0 Km

 

CORTO - 16.0 Km

Servizi

ADSCOSTPunti KS Ranking

Chip

Circuiti

Mare e CollineRomagna Bike CupTrofeo dei Lidi

Ente

FCI

Info

CLASSIFICA

LUNGO - 31.0 Km

Pos Atleta Sesso Cat PosC Team Tempo Media RTime
240 NATALI ADRIANO M M5 34 ROMAGNA BIKE GRANDI EVENTI 01:34:26.77 19,70 01:33:59.47
239 DI BAGGIO BARBARA LETIZIA F MW1 6 INDIVIDUALE 01:30:46.50 20,49 01:30:21.20
237 COSTANTINI DENIS M M2 30 ASD OTW RAVENNA 01:25:41.43 21,71 01:25:32.32
238 GUGLIELMI LUCIANO M M6 35 SPACCO ASD 01:25:43.99 21,70 01:25:10.69
236 MINI FRANCO M M6 34 UISP FORLI CESENA 01:25:39.99 21,72 01:25:12.99
235 SELLERI STEFANO M M5 33 ASD GREEN DEVILS 01:25:37.99 21,72 01:25:13.19
234 BALBONI ERICA F MW1 5 ASD GREEN DEVILS 01:25:37.49 21,72 01:25:06.49
233 FRANCI CRISTINA F MW1 4 ASD TEAM BIKE VALCONCA 01:25:10.99 21,84 01:24:37.39
231 CASADEI MIRKO M M2 29 TEAM SESSANTALLORA 01:25:02.43 21,87 01:24:33.33
232 GAGLIARDI ELISABETTA F MW2 9 BARACCA LUGO 01:25:10.24 21,84 01:24:48.48
230 FABBRI DAVIDE M M3 30 ASD SAMBI TEAM 01:24:24.72 22,04 01:23:59.42
229 CASTELLARI CLAUDIO M M5 32 ASD CMA IMOLA 01:23:55.72 22,16 01:23:34.42
227 SILVANI ALEX M ELMT 24 TEAM PASSION FAENTINA 01:23:30.43 22,28 01:23:23.23
228 MALAGUTI DAVIDE M M4 33 BAMBANA BIKE 01:23:32.22 22,27 01:22:57.57
226 RIGHETTI PIETRO M M6 33 BAMBANA BIKE 01:22:47.97 22,47 01:22:26.47
225 CAPPELLI LUCA M M2-2 4 PEDALE CESENATE CICLI NERI 01:20:43.71 23,04 01:20:21.21
223 MINGHETTI MASSIMILIANO M M4 32 ASD RICCI CICLI 01:20:42.47 23,05 01:20:12.47
224 MARCHESINI ARIANNA F MW1 3 SALCUS 01:20:43.21 23,04 01:20:32.32
222 EVANGELISTI MATTIA M ELMT 23 GOOD BIKE AS RONCOFREDDESE 01:20:24.21 23,13 01:19:59.21
221 MINIELLO LEO M M1 17 TEAM BIKE COCIF.COM ASD 01:20:23.46 23,14 01:20:11.11
220 ARDIZZONE PAOLO M M6 32 ASD MEDINOX 01:19:51.71 23,29 01:19:39.01
219 BALDNI DANIELA F MW2 8 ASD MEDINOX 01:19:51.41 23,29 01:19:25.31
218 GAGLIANO CLARA F MW2 7 BAMBANA BIKE 01:19:18.21 23,46 01:18:47.47
217 CHIOCCIOLINI DANIELA F MW2 6 180 BPM 01:19:16.71 23,47 01:19:01.21
216 GASTALDI CARLO M M5 31 SC VELOCIRAPTOR 01:18:51.71 23,59 01:18:29.21
215 BALDUCCI ANTONELLA F MW2 5 SC VELOCIRAPTOR 01:18:17.96 23,76 01:17:57.16
214 CANONICI IVO M M5 30 TEAM ZANETTI ASD 01:18:09.21 23,80 01:17:46.01
213 SARAGONI SIMONE M ELMT 22 VELO CLUB PANIGHINA 01:17:58.41 23,86 01:17:28.31
212 MAGALOTTI GIANLUCA M M4 31 SAN MARINO MTB TEAM 01:17:58.21 23,86 01:17:38.38
211 RIGHI CHRISTIAN M M3 29 ASD COLLI CICLI VELOSPORT CARPI 01:16:23.19 24,35 01:15:58.58
210 BELTRAMINI FILIPPO M ELMT 21 TRIAL BIKE LUGO 01:16:19.94 24,37 01:16:05.34
209 ZACCARIA VALTER M M5 29 ASD OTW RAVENNA 01:16:05.94 24,45 01:15:57.64
207 CAPPELLINI MATTEO M M3 28 180 BPM 01:15:31.94 24,63 01:15:15.44
208 ARLOTTI MAURIZIO M M5 28 TEAM TORPEDO BIKE 01:15:54.94 24,51 01:15:41.84
206 CAVULLA ANNARITA F MW2 4 ASD IMOLA BIKE 01:14:49.94 24,86 01:14:41.44
205 BALDISSERRI PIETRO M M6 31 GS TORPADO SURFING SHOP SPORT PROMOTION 01:14:34.69 24,94 01:14:06.09
203 CHILLO TANIA F MW2 3 ASD ONLYOFF DUE RUOTE 01:14:23.19 25,01 01:14:13.19
204 GUERRINI DANILO M ELMT 20 TEAM PASSION FAENTINA 01:14:29.69 24,97 01:14:14.09
202 BRUNALDI SIMONETTA F MW1 2 PAONIX TEAM 01:14:08.99 25,09 01:14:08.99
201 BISSIONI LORENZO M M6 30 COMUNICARE SQUADRA AI CRONOMETRISTI 01:14:08.69 25,09 01:14:02.19
200 RAVAIOLI GIANCARLO M M6 29 GRUPPO TNT 01:14:07.39 25,10 01:13:50.50
199 FERRI MAURO M M6 28 BAMBANA BIKE 01:14:06.94 25,10 01:13:36.94
197 RAVAIOLI LORENZO M M4 30 ASD POL. GLORIE 01:13:40.39 25,25 01:13:12.09
198 CANGINI MARINO M M5 27 ASD TEAM COMACO 01:14:02.19 25,12 01:13:36.36
196 CIPOLETTI JURI M M4 29 KTM FORTI E LIBERI 01:13:36.39 25,27 01:13:07.09
195 STURNIOLO FRANCESCO M M3 27 ASD OTW RAVENNA 01:13:35.19 25,28 01:13:27.27
194 VIGGIANI FILIPPO M ELMT 19 GS CICLI EFFE EFFE 01:13:34.44 25,28 01:13:29.14
193 VALBONESI EMANUELE M M2 28 180 BPM 01:13:24.19 25,34 01:13:08.08
192 SAPIGNI DANILO M M3 26 ASD MEDINOX 01:12:55.94 25,51 01:12:25.84
191 MARRA MAURIZIO M M1 16 GS CICLI MATTEONI FRW 01:12:55.69 25,51 01:12:35.35
190 BUBBOLINI MICHELE M M2 27 GRUPPO TNT 01:12:55.69 25,51 01:12:23.69
189 PALLI GIULIANO M M6 27 SC VELOCIRAPTOR 01:12:41.48 25,59 01:12:41.48
188 GUCCINI FABIO M M1 15 TEAM K-ONE ASD 01:12:28.38 25,67 01:11:56.28
186 FONTANA GIANNI M M4 28 KTM ASD SCATENATI 01:12:12.68 25,76 01:11:51.51
187 BEZZI CLAUDIO M M6 26 TEAM PASSION FAENTINA 01:12:24.68 25,69 01:11:56.56
185 ACCIAI MAURIZIO M M6 25 GRUPPO TNT 01:12:12.18 25,76 01:12:09.09
183 BASSETTI MASSIMO M M6 23 180 BPM 01:12:07.68 25,79 01:11:40.18
184 GUCCINI DOMENICO M M6 24 TEAM K-ONE ASD 01:12:11.18 25,77 01:11:41.41
182 BRUNETTI GIOVANNI M M5 26 BARACCA LUGO 01:12:06.93 25,80 01:11:45.63
181 SABBATANI MASSIMILIANO M M3-2 9 UISP FORLI CESENA 01:12:06.38 25,80 01:11:39.39
179 CAVINA MARCO M M3 25 ASD DOROBIKE TEAM 01:12:03.68 25,82 01:11:39.38
180 MARCIS SALVATORE M M1 14 SALIMBICI BIKE TEAM RUOTE 01:12:05.68 25,80 01:11:59.08
178 FIORAVANTI DANIELE M M5 25 FREE BIKE CESENA 01:12:00.93 25,83 01:11:40.63
177 BARTOLONI GIANNI M M5 24 SAN MARINO MTB TEAM 01:11:55.38 25,86 01:11:37.28
175 TAURISANO ANGELO M M3 24 ASD LE SALINE NATURA E SPORT 01:11:40.93 25,95 01:11:08.33
176 BRUNETTI GIULIANO M M5 23 ASD CMA IMOLA 01:11:46.18 25,92 01:11:27.27
174 MORIGI MATTEO M M1 13 TEAM TORPEDO BIKE 01:11:33.38 26,00 01:11:22.08
172 BARBERINI STEFANO M M3-2 8 ASD MEDINOX 01:11:23.93 26,06 01:10:57.63
173 GIULIANELLI MARIO M M6 22 TEAM MONDOBICI TECNOPLAST 01:11:26.93 26,04 01:10:58.93
171 FANTINI GIANFRANCO M M6 21 GS LELLI BIKE ASD 01:11:16.18 26,10 01:10:55.55
170 CERDA CEBALLOS ANTONIO ALESANDRO M M2 26 TEAM PASSION FAENTINA 01:10:44.18 26,30 01:10:16.16
169 MAZZINI MARCO M M3 23 BAMBANA BIKE 01:10:29.18 26,39 01:09:57.57
168 SAVORANI SANDRO M M6 20 BIKERS FOGNANO 01:10:27.43 26,40 01:09:58.33
167 MERLARI MICHAEL M M1 12 GOOD BIKE AS RONCOFREDDESE 01:10:19.18 26,45 01:10:00.00
166 CECCHINI ALFIO M M5 22 ASD TEAM BIKE VALCONCA 01:10:16.38 26,47 01:09:45.45
165 GARAVINI DAVIDE M M5 21 180 BPM 01:10:16.18 26,47 01:09:59.59
164 GIULIONI GABRIELE M M4-2 8 ASD TEAM BIKE VALCONCA 01:10:15.93 26,48 01:09:44.13
163 MAURO EMANUELE M ELMT 18 ASD TOSCO-ROMAGNOLA 01:10:14.68 26,48 01:09:54.38
162 MACCHEROZZI MARTA F MW2 2 GRUPPO TNT 01:10:12.38 26,50 01:09:54.54
161 BRUNETTI ALBERTO M ELMT 17 ASD CMA IMOLA 01:10:07.38 26,53 01:09:44.44
159 RINALDI MATTEO M ELMT 16 POLISPORTIVA ZOLA 01:10:06.18 26,53 01:09:36.18
160 PETTAZZONI DAVIDE M M5 20 BAMBANA BIKE 01:10:06.93 26,53 01:09:38.13
158 BORDONI PIETRO M M5 19 ASD MEDINOX 01:10:06.18 26,53 01:09:39.39
157 ZOLLO CARLO M M6 19 KTM FORTI E LIBERI 01:09:51.68 26,63 01:09:29.08
155 MASINI STEFANO M M5 18 ASD SBUBBIKERS 01:09:48.18 26,65 01:09:34.34
156 TAROZZI ROBERTO M M4-2 7 TEAM PASSION FAENTINA 01:09:48.18 26,65 01:09:37.37
154 LOMBARDI TIZIANO M M6 18 GRUPPO TNT 01:09:41.93 26,69 01:09:22.63
152 MAZZONI ROBERTO M M4 27 ASD LA PALESTRA 01:09:36.93 26,72 01:09:05.23
153 GAVANELLI LORENZO M M2 25 POL. YOUNG LINE 01:09:37.18 26,72 01:09:26.18
151 CIGNANI ROMANO M M3-2 7 180 BPM 01:09:29.18 26,77 01:09:11.11
150 BRACCIAROLI EMILIO M M6 17 GRUPPO TNT 01:09:28.18 26,78 01:09:04.04
148 PARA MASSIMO M M5 17 BIKE TUNING 01:09:05.18 26,92 01:08:49.49
149 STEFANI MANUEL M ELMT 15 GC PANIGHINA 01:09:24.18 26,80 01:08:55.08
147 CIMINIELLO CHRISTIAN M ELMT 14 ASD SAMBI TEAM 01:08:57.36 26,98 01:08:41.41
146 CAVALLARI ARMANDO M M4 26 ASD LA PALESTRA 01:08:55.68 26,99 01:08:24.68
145 CESARI ERNESTINO M M6 16 ASD GREEN DEVILS 01:08:50.36 27,02 01:08:34.34
144 BARBERINI EMANUELE M M3-2 6 ASD MEDINOX 01:08:46.93 27,05 01:08:19.43
143 FABIANI FABIO M M4-2 6 SPACCO ASD 01:08:46.93 27,05 01:08:19.93
141 ZANIBONI TIZIANO M M6 15 ASD CMA IMOLA 01:08:34.43 27,13 01:08:13.13
142 BISERNA BRUNO M M4 25 POLISPORTIVA SAN VITTORE - ALFIO TANI 01:08:37.36 27,11 01:08:11.06
140 MASSARI MATTIA M ELMT 13 ASD MEDINOX 01:08:30.68 27,15 01:08:07.38
139 FUSAI FERDINANDO M M4 24 GRUPPO TNT 01:08:30.16 27,15 01:08:19.19
138 GASTALDI ELISA F MW1 1 TEAM PASSION FAENTINA 01:08:29.91 27,16 01:08:13.41
137 PAZZINI GERARDO M M6 14 ASD POLISPORTIVA COSMOS 01:08:26.66 27,18 01:08:10.10
135 DI LEVA PIETRO M M5 16 BAMBANA BIKE 01:08:25.66 27,19 01:07:55.16
136 RINALDINI PAOLO M M4-2 5 SCORPION BIKE MTB 01:08:25.91 27,19 01:08:08.11
134 MINARDI MARCO M M5 15 TEAM PASSION FAENTINA 01:08:21.66 27,21 01:08:15.36
133 MAVILLA PAOLO M M5 14 TEAM PASSION FAENTINA 01:08:21.36 27,21 01:08:04.04
131 OTTAVIANI ROBERTO M M6 13 ASD OLIVIERO 01:08:00.36 27,35 01:07:45.36
132 GENTILINI CRISTIANO M M3 22 ASD OTW RAVENNA 01:08:14.16 27,26 01:08:06.06
130 MESSINA GIUSEPPE M M6 12 BAMBANA BIKE 01:07:54.41 27,39 01:07:34.34
129 CAVIOLI DANIELE M M1 11 ASD LE SALINE NATURA E SPORT 01:07:52.66 27,41 01:07:35.16
128 SALSI PIERLUIGI M M5 13 ASD SAMBI TEAM 01:07:43.66 27,47 01:07:17.36
127 BAGNOLINI ALESSANDRO M M2 24 ASD OSTERIA 01:07:37.66 27,51 01:07:30.36
126 FRANCESCHINI ANDREA M M4 23 TEAM CINGOLANI - SPECIALIZED 01:07:33.36 27,54 01:07:07.06
125 BUDELACCI MIRCO M M3-2 5 GS TORPADO SURFING SHOP SPORT PROMOTION 01:07:32.66 27,54 01:07:03.06
123 GUSMAN PARIDE M M3 20 POL. PONTE NUOVO ASD 01:07:11.66 27,69 01:07:01.56
124 AGNOLETTI MARIO M M3 21 UISP RAVENNA 01:07:19.66 27,63 01:07:07.07
122 BOSI GABRIELE M M6 11 GS LELLI BIKE ASD 01:07:04.36 27,73 01:06:42.42
121 GRECO MARCO M M4 22 SALIMBICI BIKE TEAM RUOTE 01:07:04.16 27,73 01:06:41.41
120 CICOGNANI FABRIZIO M M1 10 180 BPM 01:07:03.16 27,74 01:06:44.44
119 PAPETTI MIRKO M ELMT 12 ASD OTW RAVENNA 01:07:02.91 27,75 01:06:53.11
117 ZACCARELLI GIUSEPPE M M3 19 ASD RICCI CICLI 01:06:39.36 27,91 01:06:14.14
118 LOMBARDI NICOLO M ELMT 11 180 BPM 01:06:45.36 27,87 01:06:28.36
116 TERZIARI ALBERTO M M5 12 POL. YOUNG LINE 01:06:33.36 27,95 01:06:23.23
115 FABBRI MATTIA M M3 18 POLISPORTIVA SAN VITTORE 01:06:31.16 27,96 01:06:07.07
114 CAVINA GIAMBATTISTA M M4 21 ASD IMOLA BIKE 01:06:30.16 27,97 01:06:20.20
113 SASDELLI MICHELE M M3-2 4 BAMBANA BIKE 01:06:29.91 27,98 01:06:17.61
112 SCALA DAVID M M3 17 POLISPORTIVA SAN VITTORE 01:06:29.66 27,98 01:06:19.66
111 ZAGHINI MARZIO M M2 23 COMUNICARE SQUADRA AI CRONOMETRISTI 01:06:28.66 27,98 01:06:22.66
110 CHIARADIA TULLIO M M2 22 180 BPM 01:06:28.16 27,98 01:06:12.12
109 CONVERTINO MATTEO M M3 16 SC VELOCIRAPTOR 01:06:22.65 28,03 01:05:57.57
107 TURCHI FABRIZIO M M4-2 4 KTM FORTI E LIBERI 01:06:16.65 28,07 01:05:48.05
108 VERIDIANI ALESSANDRO M M3 15 ASD OTW RAVENNA 01:06:18.66 28,05 01:06:09.09
106 COZZOLINI CLAUDIO M M3 14 ASD TEAM COMACO 01:06:15.16 28,08 01:05:50.16
105 ORAZI MASSIMILIANO M M4 20 TEAM PASSION FAENTINA 01:06:11.36 28,10 01:05:56.06
103 SELVA FEDERICO M M2-2 3 SAN MARINO MTB TEAM 01:06:03.66 28,16 01:05:46.56
104 BABINI GIOVANNI M M6 10 SC VELOCIRAPTOR 01:06:09.91 28,12 01:05:44.31
102 GAUDENZI GUGLIELMO M M6 9 ASCD VALLE DEL CONCA 01:06:03.16 28,16 01:05:39.06
101 AMADUCCI ROBERTO M M6 8 180 BPM 01:06:01.36 28,17 01:05:50.06
99 LUSA MORGAN M M1 9 MTB CESENA 01:05:40.36 28,32 01:05:25.25
100 MEDRI FRANCO M M4 19 TEAM PASSION FAENTINA 01:05:47.91 28,27 01:05:32.41
98 MENGOZZI ANDREA M JUN 1 ASD LE SALINE NATURA E SPORT 01:05:32.16 28,38 01:05:09.09
96 BABINI STEFANO M M2-2 2 VITAMINA TEAM 01:05:25.91 28,43 01:05:03.11
97 FABBRI DAVIDE M M3 13 ASD H3O RACE TEAM 01:05:30.48 28,40 01:05:28.28
95 MONTANARI MAURO M M2-2 1 TEAM PASSION FAENTINA 01:05:23.66 28,45 01:05:06.36
94 CIMATTI ANDREA M M3 12 ASD SAMBI TEAM 01:05:22.91 28,45 01:05:13.31
92 TEDALDI SAMUELE M M2 21 TEAM ZANETTI ASD 01:05:15.91 28,51 01:05:08.31
93 PAVANI BARBARA F MW2 1 ASD IMOLA BIKE 01:05:17.35 28,49 01:05:06.25
91 SIMONI MARIO M M4 18 TEAM SPARROW 01:05:13.66 28,52 01:04:59.36
90 COLASUONNO VINCENZO M M3 11 ASD SAMBI TEAM 01:05:13.35 28,52 01:05:06.06
89 MONTIRONI GIANCARLO M M6 7 ASD SAMBI TEAM 01:05:09.91 28,55 01:05:05.81
88 CANESTRINI GIACOMO M M2 20 COMUNICARE SQUADRA AI CRONOMETRISTI 01:05:09.90 28,55 01:05:09.90
86 BRUNELLI ENRICO M M2 19 GRUPPO TNT 01:05:02.91 28,60 01:04:41.91
87 BECCI MORENO M M6 6 GRUPPO TNT 01:05:03.66 28,59 01:04:49.49
85 BARTOLOMEI GIAMPIERO M M5 11 GRUPPO TNT 01:05:02.35 28,60 01:04:47.47
84 MARANI RICCARDO M M2 18 TEAM PASSION FAENTINA 01:04:51.66 28,68 01:04:38.16
83 SPADONI ANDREA M M4 17 ASD LA PALESTRA 01:04:51.66 28,68 01:04:31.16
81 BURZACCA ANDREA M M5 10 GS TORPADO SURFING SHOP SPORT PROMOTION 01:04:47.66 28,71 01:04:24.16
82 PALANCA GIANLUCA M M4 16 SPACCO ASD 01:04:49.35 28,70 01:04:27.35
80 ROSETTI FILIPPO M ELMT 10 180 BPM 01:04:44.41 28,73 01:04:34.34
79 TASSINARI ALBERTO M ELMT 9 ASD OTW RAVENNA 01:04:42.16 28,75 01:04:37.37
78 GENTILI ETTORE M M4 15 ASD SAMBI TEAM 01:04:30.14 28,84 01:04:24.24
77 NARDI MASSIMO M M4-2 3 180 BPM 01:04:18.89 28,93 01:04:07.09
76 CASTELLUCCI STEFANO M M4-2 2 180 BPM 01:04:18.14 28,93 01:04:05.04
75 PANCISI GABRIELE M M5 9 GRUPPO TNT 01:04:02.35 29,05 01:03:47.05
74 ROSSI ALAN M M1 8 GRUPPO TNT 01:04:02.35 29,05 01:03:43.43
73 TORTOLANI UGO M M3 10 POL. YOUNG LINE 01:04:01.14 29,05 01:03:56.14
72 FACCANI ROBERTO M M2 17 UISP RAVENNA 01:04:00.89 29,06 01:03:35.59
71 MAGALOTTI DAVIDE M M2 16 COMUNICARE SQUADRA AI CRONOMETRISTI 01:03:57.14 29,09 01:03:54.54
70 PREDIERI GIACOMO M M6 5 BAMBANA BIKE 01:03:55.35 29,10 01:03:49.49
69 CASCIELLO FABIO M M2 15 POL. YOUNG LINE 01:03:51.35 29,13 01:03:41.35
68 TAIBI FILIPPO M ELMT 8 ASD OTW RAVENNA 01:03:27.64 29,31 01:03:19.34
67 BALDASSARRI RICCARDO M M2 14 ASD GREEN DEVILS 01:03:27.35 29,31 01:03:19.25
65 FABBRI MAURIZIO M M3 9 ASD MEDINOX 01:03:22.89 29,35 01:03:11.59
66 SAVINO CARMINE M M4 14 TEAM PASSION FAENTINA 01:03:24.14 29,34 01:03:14.04
64 CONFICONI SAMUELE M M3 8 ASD TEAM ENDURANCE 01:03:21.64 29,36 01:03:13.14
62 MARIANI FRANCO M M4 13 ASD DOROBIKE TEAM 01:03:16.64 29,40 01:03:09.34
63 PAZZI LUCA M M5 8 KTM FORTI E LIBERI 01:03:17.35 29,39 01:03:13.35
61 ZANIBONI ROBERTO M M5 7 POL. YOUNG LINE 01:03:14.14 29,41 01:02:54.04
60 CHIARUCCI FABRIZIO M M6 4 ASD SAMBI TEAM 01:03:13.35 29,42 01:03:06.25
58 BALDO RAFFAELE M M4 12 TEAM PASSION FAENTINA 01:03:11.89 29,44 01:02:56.09
59 BRIGANTI GIANNI M M5 6 180 BPM 01:03:13.14 29,42 01:03:00.00
57 CAVICCHI CRISTIAN M M3-2 3 POL. YOUNG LINE 01:03:11.64 29,44 01:03:11.64
55 MURATORI GIAMPAOLO M M4 10 GRUPPO TNT 01:03:10.35 29,45 01:03:02.05
56 FIORINI FABIO M M4 11 ASD TEAM ENDURANCE 01:03:11.14 29,44 01:03:06.14
54 BRACCIAROLI LUCA M ELMT 7 COMUNICARE SQUADRA AI CRONOMETRISTI 01:03:05.64 29,48 01:02:47.64
16 BOVINO MARIO M M4 2 KTM FORTI E LIBERI 01:00:12.88 30,90 01:00:12.88
14 RENZI GIANMARIA M ELMT 2 ASCD VALLE DEL CONCA 01:00:06.13 30,95 01:00:00.00
15 CAI SAMUELE M M2 6 LIMBO AZUL 01:00:07.63 30,94 01:00:03.03
13 RUFFILLI PAOLO M M2 5 COMUNICARE SQUADRA AI CRONOMETRISTI 01:00:05.33 30,96 01:00:01.33
12 BRASINI ALESSANDRO M ELMT 1 TEAM SOLO BICI FORLI´ 01:00:05.33 30,96 01:00:03.03
11 POLVERINO ANDREA M M1 4 KTM FORTI E LIBERI 00:59:51.88 31,08 00:59:51.88
9 LEONI GERMANO M M4 1 TEAM PASSION FAENTINA 00:59:31.13 31,25 00:59:31.13
10 GALAMINI MAURIZIO M M5 1 ROMAGNA BIKE GRANDI EVENTI 00:59:32.13 31,24 00:59:32.13
8 VENTURINI MIRKO M M2 4 BARACCA LUGO 00:59:24.13 31,31 00:59:24.13
7 VALENTINI STEFANO M M2 3 180 BPM 00:59:23.63 31,32 00:59:23.63
6 FERRARI ENRICO M M1 3 COMUNICARE SQUADRA AI CRONOMETRISTI 00:59:22.13 31,33 00:59:22.13
5 FIRMIANI MARCO M M2 2 ASD SAMBI TEAM 00:58:55.33 31,57 00:58:52.23
3 FABBRI CHRISTIAN M M3 1 TEAM PASSION FAENTINA 00:58:42.13 31,69 00:58:42.13
4 DE LORENZI ENRICO M M1 2 ASD OSTERIA 00:58:45.88 31,66 00:58:44.08
53 BRUNETTI MARCO M ELMT 6 ROCK RACING 01:03:03.64 29,50 01:02:43.43
52 CAVALLARI ALESSANDRO M M1 7 TEAM SPARROW 01:02:54.14 29,57 01:02:40.40
51 MAGRINI STEFANO M M6 3 SC VELOCIRAPTOR 01:02:49.64 29,61 01:02:45.04
50 MILETI GIUSEPPE M ELMT 5 SALIMBICI BIKE TEAM RUOTE 01:02:48.35 29,62 01:02:41.35
49 PASINI GIOVANNI M M3 7 KTM FORTI E LIBERI 01:02:47.35 29,63 01:02:45.25
48 CIMINIELLO FABIO M M1 6 ASD SAMBI TEAM 01:02:46.89 29,63 01:02:34.19
47 PRUNI PAOLO M M4 9 KTM FORTI E LIBERI 01:02:46.64 29,63 01:02:34.14
46 GHERARDI ALESSANDRO M ELMT 4 SALIMBICI BIKE TEAM RUOTE 01:02:43.89 29,66 01:02:27.19
45 BALBONI VANNI M M4 8 ASD GREEN DEVILS 01:02:38.64 29,70 01:02:17.14
44 BARTOLETTI LUCA M M4-2 1 KTM FORTI E LIBERI 01:02:34.89 29,73 01:02:23.59
43 FERRIOLI DEVIS M M2 13 TEAM PASSION FAENTINA 01:02:31.64 29,75 01:02:17.54
42 STERNINI ANDREA M M2 12 ASD SAMBI TEAM 01:02:30.64 29,76 01:02:27.27
41 ALTINI ANDREA M M2 11 KTM FORTI E LIBERI 01:02:28.64 29,78 01:02:17.14
40 GUGLIELMI THOMAS M M2 10 COMUNICARE SQUADRA AI CRONOMETRISTI 01:02:27.35 29,78 01:02:21.21
39 FABBRI DOMENICO M M5 5 ROMAGNA BIKE GRANDI EVENTI 01:02:22.64 29,82 01:02:17.14
38 CAIBUGATTI GIANNI M M3-2 2 GRUPPO TNT 01:02:20.64 29,84 01:02:15.04
37 SARTONI SAURO M M4 7 ASD SAMBI TEAM 01:02:16.64 29,87 01:02:12.54
36 CALDERONI DAVIDE M M2 9 ASD SAMBI TEAM 01:02:12.64 29,90 01:02:12.64
35 CERONI MAURIZIO M M6 2 ASD IMOLA BIKE 01:02:09.89 29,93 01:01:55.89
34 SOVERA ALESSIO M M3 6 SALIMBICI BIKE TEAM RUOTE 01:02:09.35 29,93 01:02:04.05
33 LIVERANI ALESSANDRO M M3-2 1 TEAM PASSION FAENTINA 01:02:01.39 29,99 01:02:00.00
32 ZANCHINI FABIO M M4 6 TEAM PASSION FAENTINA 01:02:01.39 29,99 01:01:51.09
31 MAMBELLI MARCO M M2 8 ASD OTW RAVENNA 01:02:01.14 29,99 01:02:00.00
30 AGNOLETTI PIERPAOLO M M6 1 ASCD VALLE DEL CONCA 01:01:58.14 30,02 01:01:53.53
29 ALEOTTI NICOLA M M3 5 ASD POL. GLORIE 01:01:57.64 30,02 01:01:44.14
28 BABINI FABIO M M3 4 TEAM PASSION FAENTINA 01:01:56.39 30,03 01:01:47.39
27 ZOLI MATTIA M ELMT 3 SC VELOCIRAPTOR 01:01:56.14 30,03 01:01:42.42
26 MELESI MICHELE M M3 3 ASD GREEN DEVILS 01:01:41.35 30,15 01:01:35.35
25 PRETOLANI TIBERIO M M5 4 GS TORPADO SURFING SHOP SPORT PROMOTION 01:01:32.14 30,23 01:01:28.04
24 VANUZZO IURI M M2 7 ASD SAMBI TEAM 01:01:31.14 30,24 01:01:28.28
23 FORESTIERI ALESSANDRO M M4 5 INDIVIDUALE 01:01:27.36 30,27 01:01:27.36
22 MANIGRASSO GIOVANNI M M4 4 ASD ONLYOFF DUE RUOTE 01:01:12.39 30,39 01:01:05.39
21 MEDRI FRANCESCO M M5 3 ROMAGNA BIKE GRANDI EVENTI 01:00:54.89 30,54 01:00:51.09
20 ROSSI ANDREA M M4 3 ROMAGNA BIKE GRANDI EVENTI 01:00:51.14 30,57 01:00:48.48
19 PELLEGRINO PARIDE M M3 2 TEAM TORPEDO BIKE 01:00:51.14 30,57 01:00:51.14
18 LOLLI MARCELLO M M5 2 TEAM CICLI CAMPIOLI 01:00:37.25 30,68 01:00:37.25
17 BUCCI EMANUELE M M1 5 ASD TEAM BIKE VALCONCA 01:00:18.33 30,85 01:00:14.03
2 ZAMA LORENZO M M1 1 TEAM PASSION FAENTINA 00:58:35.13 31,75 00:58:32.13
1 SAMBI CHRISTIAN M M2 1 ASD SAMBI TEAM 00:58:21.63 31,88 00:58:21.63

CORTO - 16.0 Km

Pos Atleta Sesso Cat PosC Team Tempo Media RTime
5 BANDINI ALESSANDRO M ALL 5 180 BPM 00:40:17.36 23,83 00:40:17.36
4 GUAGNELI ALESSANDRO M ALL 4 ASD LE SALINE NATURA E SPORT 00:39:19.66 24,42 00:39:19.66
3 FOZZI MATTIA M ALL 3 ASD LE SALINE NATURA E SPORT 00:39:18.91 24,43 00:39:18.91
2 PRUCCOLI ANDREA M ALL 2 ASD LE SALINE NATURA E SPORT 00:37:56.89 25,31 00:37:56.89
1 TONTI ANDREA M ALL 1 ASD LE SALINE NATURA E SPORT 00:34:50.89 27,56 00:34:50.89
6 GIOVAGNOLI NICOLAS M ALL 6 ASD LE SALINE NATURA E SPORT 00:42:32.68 22,57 00:42:32.68
7 MORRI ALESSIA F ALL 7 ASD LE SALINE NATURA E SPORT 00:42:40.36 22,50 00:42:40.36
8 SERAFINI LORENZO M ES 1 ASD LE SALINE NATURA E SPORT 00:42:45.93 22,46 00:42:45.93
9 MENGOZZI MARIA F ALL 8 ASD LE SALINE NATURA E SPORT 00:44:31.18 21,56 00:44:31.18
10 FABBRI GIOVANNI M ALL 9 ASD LE SALINE NATURA E SPORT 00:45:15.93 21,22 00:45:15.93
11 MAROTTA VINCENZO M ALL 10 ASD LE SALINE NATURA E SPORT 00:48:11.94 19,92 00:48:11.94
12 SISTRI PIETRO M ES 2 ASD LE SALINE NATURA E SPORT 00:49:44.69 19,30 00:49:44.69
13 SANDU MARIO ALEXANDRU M ES 3 ASD TEAM BIKE VALCONCA 00:52:14.21 18,38 00:52:14.21
14 CECCARONI MATTEO M ES 4 ASD LE SALINE NATURA E SPORT 00:55:51.97 17,19 00:55:51.97
15 BONCI MARIO M ES 5 ASD LE SALINE NATURA E SPORT 01:04:59.46 14,77 01:04:59.46